Time;durP1;ratioP1;P1;durP2;ratioP2;P2;SDS_P1;SDS_P2;PMS_P1;PMS_P2;Temp;Humidity;BMP_temperature;BMP_pressure;BME280_temperature;BME280_humidity;BME280_pressure;Samples;Min_cycle;Max_cycle;Signal;HPM_P1;HPM_P2
2023/06/04 00:01:02;;;;;;;;;;;;;;;;;;5114239;28;19919;-62
2023/06/04 00:03:27;;;;;;;;;;;;;;;;;;5114073;28;19927;-62
2023/06/04 00:05:52;;;;;;;;;;;;;;;;;;5113981;28;20014;-62
2023/06/04 00:08:18;;;;;;;;;;;;;;;;;;5095743;28;19982;-62
2023/06/04 00:10:43;;;;;;;;;;;;;;;;;;5095363;28;19915;-61
2023/06/04 00:13:08;;;;;;;;;;;;;;;;;;5095541;28;19920;-63
2023/06/04 00:15:34;;;;;;;;;;;;;;;;;;5113319;28;20428;-62
2023/06/04 00:17:59;;;;;;;;;;;;;;;;;;5113378;28;19916;-62
2023/06/04 00:20:25;;;;;;;;;;;;;;;;;;5095169;28;20006;-62
2023/06/04 00:22:50;;;;;;;;;;;;;;;;;;5112409;28;19927;-63
2023/06/04 00:25:16;;;;;;;;;;;;;;;;;;5083292;28;19916;-62
2023/06/04 00:27:41;;;;;;;;;;;;;;;;;;5093080;28;19920;-62
2023/06/04 00:30:06;;;;;;;;;;;;;;;;;;5093431;28;19924;-61
2023/06/04 00:32:31;;;;;;;;;;;;;;;;;;5092603;28;19920;-63
2023/06/04 00:34:57;;;;;;;;;;;;;;;;;;5074397;28;19967;-63
2023/06/04 00:37:23;;;;;;;;;;;;;;;;;;5092595;28;19919;-62
2023/06/04 00:39:48;;;;;;;;;;;;;;;;;;5074286;28;20373;-62
2023/06/04 00:42:13;;;;;;;;;;;;;;;;;;5102418;28;20380;-63
2023/06/04 00:44:44;;;;;;;;;;;;;;;;;;5077211;28;20515;-61
2023/06/04 00:47:09;;;;;;;;;;;;;;;;;;5108450;28;19924;-62
2023/06/04 00:49:34;;;;;;;;;;;;;;;;;;5074578;28;19916;-62
2023/06/04 00:52:00;;;;;;;;;;;;;;;;;;5092601;28;20022;-63
2023/06/04 00:54:25;;;;;;;;;;;;;;;;;;5092765;28;20431;-62
2023/06/04 00:56:51;;;;;;;;;;;;;;;;;;5073835;28;20498;-62
2023/06/04 00:59:16;;;;;;;;;;;;;;;;;;5074660;28;20357;-62
2023/06/04 01:01:42;;;;;;;;;;;;;;;;;;5092598;28;19939;-62
2023/06/04 01:04:07;;;;;;;;;;;;;;;;;;5093656;28;19990;-62
2023/06/04 01:06:33;;;;;;;;;;;;;;;;;;5089570;28;19920;-62
2023/06/04 01:08:58;;;;;;;;;;;;;;;;;;5091898;28;19926;-62
2023/06/04 01:11:23;;;;;;;;;;;;;;;;;;5073663;28;20365;-62
2023/06/04 01:13:49;;;;;;;;;;;;;;;;;;5091186;28;19920;-62
2023/06/04 01:16:14;;;;;;;;;;;;;;;;;;5112346;28;19924;-61
2023/06/04 01:18:39;;;;;;;;;;;;;;;;;;5112086;28;19920;-62
2023/06/04 01:21:07;;;;;;;;;;;;;;;;;;5094446;28;20279;-61
2023/06/04 01:23:35;;;;;;;;;;;;;;;;;;5112574;28;19963;-63
2023/06/04 01:26:02;;;;;;;;;;;;;;;;;;5111786;28;19922;-63
2023/06/04 01:28:27;;;;;;;;;;;;;;;;;;5112309;28;20431;-62
2023/06/04 01:30:53;;;;;;;;;;;;;;;;;;5112231;28;20015;-61
2023/06/04 01:33:18;;;;;;;;;;;;;;;;;;5104680;28;19951;-62
2023/06/04 01:35:44;;;;;;;;;;;;;;;;;;5073813;28;19924;-62
2023/06/04 01:38:09;;;;;;;;;;;;;;;;;;5072982;28;19943;-62
2023/06/04 01:40:35;;;;;;;;;;;;;;;;;;5092282;28;19916;-61
2023/06/04 01:43:00;;;;;;;;;;;;;;;;;;5093300;28;19927;-63
2023/06/04 01:45:26;;;;;;;;;;;;;;;;;;5111253;28;19923;-63
2023/06/04 01:47:52;;;;;;;;;;;;;;;;;;5093822;28;19967;-62
2023/06/04 01:50:17;;;;;;;;;;;;;;;;;;5093986;28;19923;-62
2023/06/04 01:52:42;;;;;;;;;;;;;;;;;;5111950;28;19942;-63
2023/06/04 01:55:08;;;;;;;;;;;;;;;;;;5112171;28;19923;-62
2023/06/04 01:57:33;;;;;;;;;;;;;;;;;;5093763;28;19920;-62
2023/06/04 01:59:58;;;;;;;;;;;;;;;;;;5093856;28;19923;-63
2023/06/04 02:02:25;;;;;;;;;;;;;;;;;;5102989;28;19920;-63
2023/06/04 02:04:51;;;;;;;;;;;;;;;;;;5073506;28;20026;-62
2023/06/04 02:07:20;;;;;;;;;;;;;;;;;;5058319;28;19924;-62
2023/06/04 02:09:45;;;;;;;;;;;;;;;;;;5101512;28;20361;-62
2023/06/04 02:12:10;;;;;;;;;;;;;;;;;;5093764;28;19920;-63
2023/06/04 02:14:41;;;;;;;;;;;;;;;;;;5111979;28;20311;-62
2023/06/04 02:17:12;;;;;;;;;;;;;;;;;;5111904;28;20023;-62
2023/06/04 02:19:39;;;;;;;;;;;;;;;;;;5111492;28;19916;-63
2023/06/04 02:22:04;;;;;;;;;;;;;;;;;;5112134;28;20304;-63
2023/06/04 02:24:29;;;;;;;;;;;;;;;;;;5111721;28;19918;-63
2023/06/04 02:26:55;;;;;;;;;;;;;;;;;;5112051;28;19920;-62
2023/06/04 02:29:20;;;;;;;;;;;;;;;;;;5093515;28;20384;-63
2023/06/04 02:31:45;;;;;;;;;;;;;;;;;;5111919;28;19916;-62
2023/06/04 02:34:11;;;;;;;;;;;;;;;;;;5092624;28;19920;-64
2023/06/04 02:36:36;;;;;;;;;;;;;;;;;;5093529;28;20069;-63
2023/06/04 02:39:02;;;;;;;;;;;;;;;;;;5111597;28;19923;-62
2023/06/04 02:41:28;;;;;;;;;;;;;;;;;;5111861;28;19919;-63
2023/06/04 02:43:53;;;;;;;;;;;;;;;;;;5093384;28;19920;-62
2023/06/04 02:46:18;;;;;;;;;;;;;;;;;;5093152;28;19922;-63
2023/06/04 02:48:44;;;;;;;;;;;;;;;;;;5076459;28;19920;-63
2023/06/04 02:51:10;;;;;;;;;;;;;;;;;;5111611;28;19923;-62
2023/06/04 02:53:35;;;;;;;;;;;;;;;;;;5111111;28;19927;-62
2023/06/04 02:56:00;;;;;;;;;;;;;;;;;;5112431;28;19924;-63
2023/06/04 02:58:26;;;;;;;;;;;;;;;;;;5096875;28;19927;-62
2023/06/04 03:00:51;;;;;;;;;;;;;;;;;;5114175;28;19923;-63
2023/06/04 03:03:16;;;;;;;;;;;;;;;;;;5096907;28;19915;-62
2023/06/04 03:05:42;;;;;;;;;;;;;;;;;;5114257;28;19926;-62
2023/06/04 03:08:08;;;;;;;;;;;;;;;;;;5096608;28;19964;-64
2023/06/04 03:10:33;;;;;;;;;;;;;;;;;;5115196;28;19916;-61
2023/06/04 03:12:59;;;;;;;;;;;;;;;;;;5096753;28;20299;-62
2023/06/04 03:15:24;;;;;;;;;;;;;;;;;;5096706;28;19995;-63
2023/06/04 03:17:51;;;;;;;;;;;;;;;;;;5114970;28;19920;-62
2023/06/04 03:20:16;;;;;;;;;;;;;;;;;;5095915;28;19938;-63
2023/06/04 03:22:41;;;;;;;;;;;;;;;;;;5079155;28;19927;-62
2023/06/04 03:25:07;;;;;;;;;;;;;;;;;;5088393;28;19962;-63
2023/06/04 03:27:33;;;;;;;;;;;;;;;;;;5076094;28;19919;-63
2023/06/04 03:29:59;;;;;;;;;;;;;;;;;;5075170;28;20296;-62
2023/06/04 03:32:24;;;;;;;;;;;;;;;;;;5106250;28;19926;-63
2023/06/04 03:34:50;;;;;;;;;;;;;;;;;;5079324;28;19955;-62
2023/06/04 03:37:16;;;;;;;;;;;;;;;;;;5096147;28;19920;-62
2023/06/04 03:39:42;;;;;;;;;;;;;;;;;;5095999;28;19973;-63
2023/06/04 03:42:10;;;;;;;;;;;;;;;;;;5096010;28;19923;-63
2023/06/04 03:44:35;;;;;;;;;;;;;;;;;;5095911;28;20341;-64
2023/06/04 03:47:01;;;;;;;;;;;;;;;;;;5095794;28;19920;-63
2023/06/04 03:49:26;;;;;;;;;;;;;;;;;;5108430;28;19999;-64
2023/06/04 03:51:52;;;;;;;;;;;;;;;;;;5093540;28;19946;-62
2023/06/04 03:54:19;;;;;;;;;;;;;;;;;;5076356;28;19951;-64
2023/06/04 03:56:46;;;;;;;;;;;;;;;;;;5095260;28;20412;-63
2023/06/04 03:59:11;;;;;;;;;;;;;;;;;;5095576;28;19959;-64
2023/06/04 04:01:37;;;;;;;;;;;;;;;;;;5078936;28;19964;-63
2023/06/04 04:04:02;;;;;;;;;;;;;;;;;;5095964;28;20041;-63
2023/06/04 04:06:28;;;;;;;;;;;;;;;;;;5095680;28;20018;-63
2023/06/04 04:08:53;;;;;;;;;;;;;;;;;;5094459;28;19920;-62
2023/06/04 04:11:19;;;;;;;;;;;;;;;;;;5095615;28;20368;-62
2023/06/04 04:13:45;;;;;;;;;;;;;;;;;;5095556;28;19919;-62
2023/06/04 04:16:10;;;;;;;;;;;;;;;;;;5095467;28;20360;-62
2023/06/04 04:18:36;;;;;;;;;;;;;;;;;;5111800;28;19974;-61
2023/06/04 04:21:01;;;;;;;;;;;;;;;;;;5074800;28;19916;-62
2023/06/04 04:23:27;;;;;;;;;;;;;;;;;;5068869;28;20123;-63
2023/06/04 04:25:53;;;;;;;;;;;;;;;;;;5074730;28;19916;-62
2023/06/04 04:28:18;;;;;;;;;;;;;;;;;;5074812;28;19963;-62
2023/06/04 04:30:45;;;;;;;;;;;;;;;;;;5074953;28;19955;-62
2023/06/04 04:33:10;;;;;;;;;;;;;;;;;;5074883;28;20440;-62
2023/06/04 04:35:44;;;;;;;;;;;;;;;;;;5075512;28;20027;-63
2023/06/04 04:38:10;;;;;;;;;;;;;;;;;;5057965;28;19926;-63
2023/06/04 04:40:41;;;;;;;;;;;;;;;;;;5075423;28;20007;-63
2023/06/04 04:43:08;;;;;;;;;;;;;;;;;;5057113;28;19942;-63
2023/06/04 04:45:34;;;;;;;;;;;;;;;;;;5087060;28;19922;-61
2023/06/04 04:48:01;;;;;;;;;;;;;;;;;;5078059;28;20393;-63
2023/06/04 04:50:26;;;;;;;;;;;;;;;;;;5080138;28;20019;-62
2023/06/04 04:52:52;;;;;;;;;;;;;;;;;;5078733;28;19975;-63
2023/06/04 04:55:17;;;;;;;;;;;;;;;;;;5074282;28;19924;-63
2023/06/04 04:57:45;;;;;;;;;;;;;;;;;;5075904;28;20098;-63
2023/06/04 05:00:11;;;;;;;;;;;;;;;;;;5081704;28;20369;-64
2023/06/04 05:02:39;;;;;;;;;;;;;;;;;;5074144;28;19989;-63
2023/06/04 05:05:06;;;;;;;;;;;;;;;;;;5075026;28;20427;-62
2023/06/04 05:07:31;;;;;;;;;;;;;;;;;;5074453;28;19920;-63
2023/06/04 05:09:58;;;;;;;;;;;;;;;;;;5083031;28;19923;-62
2023/06/04 05:12:24;;;;;;;;;;;;;;;;;;5057400;28;20448;-63
2023/06/04 05:14:49;;;;;;;;;;;;;;;;;;5106947;28;19973;-63
2023/06/04 05:17:16;;;;;;;;;;;;;;;;;;5094210;28;19938;-63
2023/06/04 05:19:42;;;;;;;;;;;;;;;;;;5092611;28;19920;-65
2023/06/04 05:22:08;;;;;;;;;;;;;;;;;;5089024;28;19926;-65
2023/06/04 05:24:34;;;;;;;;;;;;;;;;;;5076713;28;19916;-64
2023/06/04 05:27:03;;;;;;;;;;;;;;;;;;5086826;28;19920;-63
2023/06/04 05:29:28;;;;;;;;;;;;;;;;;;5090462;28;19915;-63
2023/06/04 05:31:54;;;;;;;;;;;;;;;;;;5075080;28;19974;-63
2023/06/04 05:34:21;;;;;;;;;;;;;;;;;;5112544;28;19919;-63
2023/06/04 05:36:48;;;;;;;;;;;;;;;;;;5088163;28;19924;-62
2023/06/04 05:39:13;;;;;;;;;;;;;;;;;;5087717;28;19927;-64
2023/06/04 05:42:06;;;;;;;;;;;;;;;;;;5076777;28;20435;-63
2023/06/04 05:44:31;;;;;;;;;;;;;;;;;;5096870;28;19970;-62
2023/06/04 05:46:57;;;;;;;;;;;;;;;;;;5079899;28;20038;-62
2023/06/04 05:49:25;;;;;;;;;;;;;;;;;;5094009;28;19946;-64
2023/06/04 05:51:50;;;;;;;;;;;;;;;;;;5071963;28;19928;-66
2023/06/04 05:54:16;;;;;;;;;;;;;;;;;;5073475;28;20014;-62
2023/06/04 05:56:42;;;;;;;;;;;;;;;;;;5083148;28;19973;-62
2023/06/04 05:59:08;;;;;;;;;;;;;;;;;;5105094;28;19920;-61
2023/06/04 06:01:36;;;;;;;;;;;;;;;;;;5055084;28;19923;-62
2023/06/04 06:04:02;;;;;;;;;;;;;;;;;;5091274;28;19923;-62
2023/06/04 06:06:28;;;;;;;;;;;;;;;;;;5083920;28;19924;-64
2023/06/04 06:08:54;;;;;;;;;;;;;;;;;;5090771;28;19926;-63
2023/06/04 06:11:19;;;;;;;;;;;;;;;;;;5088505;28;19972;-65
2023/06/04 06:13:45;;;;;;;;;;;;;;;;;;5062689;28;19927;-65
2023/06/04 06:16:11;;;;;;;;;;;;;;;;;;5074582;28;19951;-65
2023/06/04 06:18:37;;;;;;;;;;;;;;;;;;5076443;28;20388;-65
2023/06/04 06:21:02;;;;;;;;;;;;;;;;;;5093260;28;19919;-64
2023/06/04 06:23:27;;;;;;;;;;;;;;;;;;5093109;28;19920;-65
2023/06/04 06:25:53;;;;;;;;;;;;;;;;;;5092937;28;20059;-64
2023/06/04 06:28:22;;;;;;;;;;;;;;;;;;5092593;28;19934;-66
2023/06/04 06:30:48;;;;;;;;;;;;;;;;;;5073996;28;19955;-65
2023/06/04 06:33:14;;;;;;;;;;;;;;;;;;5059800;28;19963;-66
2023/06/04 06:35:39;;;;;;;;;;;;;;;;;;5097000;28;19924;-67
2023/06/04 06:38:05;;;;;;;;;;;;;;;;;;5094929;28;20347;-66
2023/06/04 06:40:30;;;;;;;;;;;;;;;;;;5075975;28;19916;-63
2023/06/04 06:42:55;;;;;;;;;;;;;;;;;;5098489;27;20305;-70
2023/06/04 06:45:21;;;;;;;;;;;;;;;;;;5102730;28;20397;-62
2023/06/04 06:47:46;;;;;;;;;;;;;;;;;;5096359;28;19919;-62
2023/06/04 06:50:11;;;;;;;;;;;;;;;;;;5105768;28;19920;-64
2023/06/04 06:52:37;;;;;;;;;;;;;;;;;;5113226;28;19927;-66
2023/06/04 06:55:02;;;;;;;;;;;;;;;;;;5066824;28;20432;-64
2023/06/04 06:57:29;;;;;;;;;;;;;;;;;;5077523;28;20000;-65
2023/06/04 06:59:54;;;;;;;;;;;;;;;;;;5096346;28;20374;-66
2023/06/04 07:02:20;;;;;;;;;;;;;;;;;;5100335;28;19920;-66
2023/06/04 07:04:45;;;;;;;;;;;;;;;;;;5096214;28;20006;-67
2023/06/04 07:07:11;;;;;;;;;;;;;;;;;;5095929;28;19920;-67
2023/06/04 07:09:36;;;;;;;;;;;;;;;;;;5113367;28;19915;-67
2023/06/04 07:12:01;;;;;;;;;;;;;;;;;;5114584;28;20010;-67
2023/06/04 07:14:27;;;;;;;;;;;;;;;;;;5096350;28;19923;-67
2023/06/04 07:16:52;;;;;;;;;;;;;;;;;;5114633;28;19938;-67
2023/06/04 07:19:17;;;;;;;;;;;;;;;;;;5114777;28;19916;-65
2023/06/04 07:21:43;;;;;;;;;;;;;;;;;;5115122;28;20002;-67
2023/06/04 07:24:08;;;;;;;;;;;;;;;;;;5115001;28;20417;-67
2023/06/04 07:26:34;;;;;;;;;;;;;;;;;;5115052;28;19922;-67
2023/06/04 07:28:59;;;;;;;;;;;;;;;;;;5096306;28;20019;-67
2023/06/04 07:31:24;;;;;;;;;;;;;;;;;;5096266;28;19916;-66
2023/06/04 07:33:50;;;;;;;;;;;;;;;;;;5114685;28;19920;-67
2023/06/04 07:36:15;;;;;;;;;;;;;;;;;;5095955;28;19981;-67
2023/06/04 07:38:41;;;;;;;;;;;;;;;;;;5114543;28;19919;-67
2023/06/04 07:41:06;;;;;;;;;;;;;;;;;;5114512;28;20284;-66
2023/06/04 07:43:31;;;;;;;;;;;;;;;;;;5114548;28;19920;-67
2023/06/04 07:45:57;;;;;;;;;;;;;;;;;;5114454;28;20065;-67
2023/06/04 07:48:30;;;;;;;;;;;;;;;;;;5096147;28;20274;-67
2023/06/04 07:50:55;;;;;;;;;;;;;;;;;;5114153;28;20292;-66
2023/06/04 07:53:21;;;;;;;;;;;;;;;;;;5114136;28;19927;-67
2023/06/04 07:55:46;;;;;;;;;;;;;;;;;;5114194;28;19924;-67
2023/06/04 07:58:11;;;;;;;;;;;;;;;;;;5095978;28;19993;-66
2023/06/04 08:00:37;;;;;;;;;;;;;;;;;;5114096;28;20343;-66
2023/06/04 08:03:02;;;;;;;;;;;;;;;;;;5095696;28;19923;-66
2023/06/04 08:05:28;;;;;;;;;;;;;;;;;;5095499;28;19959;-67
2023/06/04 08:07:53;;;;;;;;;;;;;;;;;;5094414;28;19927;-67
2023/06/04 08:10:18;;;;;;;;;;;;;;;;;;5114057;28;19915;-67
2023/06/04 08:12:44;;;;;;;;;;;;;;;;;;5095653;28;19922;-67
2023/06/04 08:15:10;;;;;;;;;;;;;;;;;;5113736;28;19919;-66
2023/06/04 08:17:51;;;;;;;;;;;;;;;;;;5095482;28;19946;-66
2023/06/04 08:20:18;;;;;;;;;;;;;;;;;;5113313;28;19951;-67
2023/06/04 08:22:57;;;;;;;;;;;;;;;;;;5113407;28;20385;-66
2023/06/04 08:25:26;;;;;;;;;;;;;;;;;;5113564;28;19915;-68
2023/06/04 08:28:08;;;;;;;;;;;;;;;;;;5113362;28;19920;-67
2023/06/04 08:30:53;;;;;;;;;;;;;;;;;;5098265;28;19954;-67
2023/06/04 08:33:34;;;;;;;;;;;;;;;;;;5112482;28;19920;-66
2023/06/04 08:36:02;;;;;;;;;;;;;;;;;;5113263;28;19943;-66
2023/06/04 08:38:27;;;;;;;;;;;;;;;;;;5113189;28;19927;-67
2023/06/04 08:40:52;;;;;;;;;;;;;;;;;;5095105;28;19916;-66
2023/06/04 08:43:17;;;;;;;;;;;;;;;;;;5112425;28;20083;-66
2023/06/04 08:45:43;;;;;;;;;;;;;;;;;;5112614;28;19962;-67
2023/06/04 08:48:08;;;;;;;;;;;;;;;;;;5112963;28;19919;-67
2023/06/04 08:50:33;;;;;;;;;;;;;;;;;;5112989;28;20035;-66
2023/06/04 08:52:59;;;;;;;;;;;;;;;;;;5112745;28;19967;-68
2023/06/04 08:55:25;;;;;;;;;;;;;;;;;;5094157;28;20412;-67
2023/06/04 08:57:53;;;;;;;;;;;;;;;;;;5112525;28;20036;-67
2023/06/04 09:00:20;;;;;;;;;;;;;;;;;;5112837;28;20304;-66
2023/06/04 09:02:46;;;;;;;;;;;;;;;;;;5112550;28;19920;-65
2023/06/04 09:05:12;;;;;;;;;;;;;;;;;;5113071;28;20330;-66
2023/06/04 09:07:37;;;;;;;;;;;;;;;;;;5094287;28;19974;-66
2023/06/04 09:10:03;;;;;;;;;;;;;;;;;;5112738;28;20368;-67
2023/06/04 09:12:28;;;;;;;;;;;;;;;;;;5112748;28;20025;-66
2023/06/04 09:14:53;;;;;;;;;;;;;;;;;;5112614;28;20018;-67
2023/06/04 09:17:19;;;;;;;;;;;;;;;;;;5112426;28;20290;-66
2023/06/04 09:19:44;;;;;;;;;;;;;;;;;;5094207;28;20265;-66
2023/06/04 09:22:09;;;;;;;;;;;;;;;;;;5112698;28;19916;-66
2023/06/04 09:24:36;;;;;;;;;;;;;;;;;;5112316;28;19923;-67
2023/06/04 09:27:01;;;;;;;;;;;;;;;;;;5094062;28;19926;-67
2023/06/04 09:29:26;;;;;;;;;;;;;;;;;;5112298;28;20213;-66
2023/06/04 09:31:51;;;;;;;;;;;;;;;;;;5111558;28;20141;-67
2023/06/04 09:34:17;;;;;;;;;;;;;;;;;;5093863;28;19922;-66
2023/06/04 09:36:42;;;;;;;;;;;;;;;;;;5112593;28;19978;-66
2023/06/04 09:39:07;;;;;;;;;;;;;;;;;;5112119;28;19919;-66
2023/06/04 09:41:33;;;;;;;;;;;;;;;;;;5112610;28;20356;-66
2023/06/04 09:43:58;;;;;;;;;;;;;;;;;;5093810;28;19955;-67
2023/06/04 09:46:23;;;;;;;;;;;;;;;;;;5093786;28;20292;-66
2023/06/04 09:48:49;;;;;;;;;;;;;;;;;;5112595;28;19915;-67
2023/06/04 09:51:20;;;;;;;;;;;;;;;;;;5112133;28;19924;-67
2023/06/04 09:53:46;;;;;;;;;;;;;;;;;;5111943;28;20397;-66
2023/06/04 09:56:13;;;;;;;;;;;;;;;;;;5112207;28;19923;-66
2023/06/04 09:58:39;;;;;;;;;;;;;;;;;;5112061;28;19920;-66
2023/06/04 10:01:04;;;;;;;;;;;;;;;;;;5112189;28;19923;-66
2023/06/04 10:03:30;;;;;;;;;;;;;;;;;;5111961;28;19927;-66
2023/06/04 10:05:55;;;;;;;;;;;;;;;;;;5113124;28;19916;-68
2023/06/04 10:08:20;;;;;;;;;;;;;;;;;;5115108;28;19919;-66
2023/06/04 10:10:46;;;;;;;;;;;;;;;;;;5116392;28;19915;-68
2023/06/04 10:13:11;;;;;;;;;;;;;;;;;;5115982;28;19971;-66
2023/06/04 10:15:37;;;;;;;;;;;;;;;;;;5116081;28;19962;-66
2023/06/04 10:18:03;;;;;;;;;;;;;;;;;;5116057;28;20028;-66
2023/06/04 10:20:28;;;;;;;;;;;;;;;;;;5116067;28;19912;-67
2023/06/04 10:22:55;;;;;;;;;;;;;;;;;;5115795;28;19934;-67
2023/06/04 10:25:20;;;;;;;;;;;;;;;;;;5115951;28;20276;-66
2023/06/04 10:27:46;;;;;;;;;;;;;;;;;;5115989;28;19920;-65
2023/06/04 10:30:11;;;;;;;;;;;;;;;;;;5097497;28;20356;-66
2023/06/04 10:32:37;;;;;;;;;;;;;;;;;;5115437;28;19971;-65
2023/06/04 10:35:02;;;;;;;;;;;;;;;;;;5115562;28;19919;-65
2023/06/04 10:37:29;;;;;;;;;;;;;;;;;;5115300;28;19924;-67
2023/06/04 10:39:54;;;;;;;;;;;;;;;;;;5115382;28;19915;-65
2023/06/04 10:42:21;;;;;;;;;;;;;;;;;;5115546;28;20014;-66
2023/06/04 10:44:46;;;;;;;;;;;;;;;;;;5115627;28;20014;-65
2023/06/04 10:47:12;;;;;;;;;;;;;;;;;;5115272;28;20061;-66
2023/06/04 10:49:37;;;;;;;;;;;;;;;;;;5115236;28;20034;-66
2023/06/04 10:52:03;;;;;;;;;;;;;;;;;;5115053;28;20419;-66
2023/06/04 10:54:28;;;;;;;;;;;;;;;;;;5115389;28;20353;-65
2023/06/04 10:56:54;;;;;;;;;;;;;;;;;;5115130;28;19927;-67
2023/06/04 10:59:19;;;;;;;;;;;;;;;;;;5115507;28;19932;-67
2023/06/04 11:01:44;;;;;;;;;;;;;;;;;;5097008;28;19915;-65
2023/06/04 11:04:10;;;;;;;;;;;;;;;;;;5097086;28;19920;-67
2023/06/04 11:06:36;;;;;;;;;;;;;;;;;;5115293;28;20300;-66
2023/06/04 11:09:02;;;;;;;;;;;;;;;;;;5114885;28;19916;-66
2023/06/04 11:11:27;;;;;;;;;;;;;;;;;;5115471;28;19916;-65
2023/06/04 11:13:52;;;;;;;;;;;;;;;;;;5115146;28;19933;-66
2023/06/04 11:16:18;;;;;;;;;;;;;;;;;;5114768;28;20389;-66
2023/06/04 11:18:43;;;;;;;;;;;;;;;;;;5114704;28;20371;-67
2023/06/04 11:21:11;;;;;;;;;;;;;;;;;;5114637;28;19924;-66
2023/06/04 11:23:36;;;;;;;;;;;;;;;;;;5114776;28;19920;-67
2023/06/04 11:26:02;;;;;;;;;;;;;;;;;;5114885;28;19912;-67
2023/06/04 11:28:27;;;;;;;;;;;;;;;;;;5114624;28;19920;-67
2023/06/04 11:30:52;;;;;;;;;;;;;;;;;;5114714;28;19934;-66
2023/06/04 11:33:18;;;;;;;;;;;;;;;;;;5114627;28;19934;-67
2023/06/04 11:35:43;;;;;;;;;;;;;;;;;;5114230;28;20392;-67
2023/06/04 11:38:08;;;;;;;;;;;;;;;;;;5096133;28;19988;-66
2023/06/04 11:40:34;;;;;;;;;;;;;;;;;;5114378;28;19915;-66
2023/06/04 11:42:59;;;;;;;;;;;;;;;;;;5114451;28;20367;-66
2023/06/04 11:45:25;;;;;;;;;;;;;;;;;;5114335;28;19915;-67
2023/06/04 11:47:51;;;;;;;;;;;;;;;;;;5114170;28;19927;-67
2023/06/04 11:50:16;;;;;;;;;;;;;;;;;;5114248;28;20289;-67
2023/06/04 11:52:42;;;;;;;;;;;;;;;;;;5113908;28;19928;-67
2023/06/04 11:55:07;;;;;;;;;;;;;;;;;;5113629;28;19915;-67
2023/06/04 11:57:32;;;;;;;;;;;;;;;;;;5113952;28;19930;-67
2023/06/04 11:59:58;;;;;;;;;;;;;;;;;;5113993;28;19916;-67
2023/06/04 12:02:23;;;;;;;;;;;;;;;;;;5113742;28;19926;-67
2023/06/04 12:04:48;;;;;;;;;;;;;;;;;;5113727;28;19915;-66
2023/06/04 12:07:14;;;;;;;;;;;;;;;;;;5114050;28;19916;-67
2023/06/04 12:09:39;;;;;;;;;;;;;;;;;;5113791;28;19916;-67
2023/06/04 12:12:05;;;;;;;;;;;;;;;;;;5113697;28;19926;-66
2023/06/04 12:14:30;;;;;;;;;;;;;;;;;;5113907;28;20046;-66
2023/06/04 12:16:56;;;;;;;;;;;;;;;;;;5113547;28;19928;-67
2023/06/04 12:19:21;;;;;;;;;;;;;;;;;;5095788;28;19996;-67
2023/06/04 12:21:47;;;;;;;;;;;;;;;;;;5114040;28;19922;-67
2023/06/04 12:24:13;;;;;;;;;;;;;;;;;;5113561;28;20014;-67
2023/06/04 12:26:40;;;;;;;;;;;;;;;;;;5113779;28;20385;-69
2023/06/04 12:29:06;;;;;;;;;;;;;;;;;;5112513;28;19927;-66
2023/06/04 12:31:32;;;;;;;;;;;;;;;;;;5113790;28;19916;-67
2023/06/04 12:33:57;;;;;;;;;;;;;;;;;;5113676;28;20330;-66
2023/06/04 12:36:22;;;;;;;;;;;;;;;;;;5113459;28;19924;-66
2023/06/04 12:38:48;;;;;;;;;;;;;;;;;;5095141;28;19919;-68
2023/06/04 12:41:13;;;;;;;;;;;;;;;;;;5113156;28;19916;-67
2023/06/04 12:43:38;;;;;;;;;;;;;;;;;;5113226;28;19927;-66
2023/06/04 12:46:04;;;;;;;;;;;;;;;;;;5094944;28;19915;-66
2023/06/04 12:48:29;;;;;;;;;;;;;;;;;;5113106;28;20006;-67
2023/06/04 12:50:54;;;;;;;;;;;;;;;;;;5094662;28;19911;-67
2023/06/04 12:53:20;;;;;;;;;;;;;;;;;;5112949;28;19978;-66
2023/06/04 12:55:45;;;;;;;;;;;;;;;;;;5094368;28;19951;-67
2023/06/04 12:58:10;;;;;;;;;;;;;;;;;;5113234;28;19964;-67
2023/06/04 13:00:36;;;;;;;;;;;;;;;;;;5112987;28;19923;-66
2023/06/04 13:03:01;;;;;;;;;;;;;;;;;;5094585;28;19920;-67
2023/06/04 13:05:27;;;;;;;;;;;;;;;;;;5094533;28;19922;-66
2023/06/04 13:07:52;;;;;;;;;;;;;;;;;;5094433;28;19924;-67
2023/06/04 13:10:17;;;;;;;;;;;;;;;;;;5112669;28;19915;-66
2023/06/04 13:12:43;;;;;;;;;;;;;;;;;;5094567;28;20314;-67
2023/06/04 13:15:08;;;;;;;;;;;;;;;;;;5094368;28;19960;-67
2023/06/04 13:17:33;;;;;;;;;;;;;;;;;;5112376;28;19927;-67
2023/06/04 13:19:59;;;;;;;;;;;;;;;;;;5077166;28;19923;-68
2023/06/04 13:22:24;;;;;;;;;;;;;;;;;;5112275;28;19920;-65
2023/06/04 13:24:49;;;;;;;;;;;;;;;;;;5112391;28;19915;-67
2023/06/04 13:27:15;;;;;;;;;;;;;;;;;;5112354;28;19926;-66
2023/06/04 13:29:40;;;;;;;;;;;;;;;;;;5112732;28;20022;-67
2023/06/04 13:32:06;;;;;;;;;;;;;;;;;;5111964;28;20308;-67
2023/06/04 13:34:31;;;;;;;;;;;;;;;;;;5111479;28;19916;-66
2023/06/04 13:36:57;;;;;;;;;;;;;;;;;;5093987;28;19928;-66
2023/06/04 13:39:22;;;;;;;;;;;;;;;;;;5112219;28;19919;-66
2023/06/04 13:41:48;;;;;;;;;;;;;;;;;;5112548;28;19916;-67
2023/06/04 13:44:13;;;;;;;;;;;;;;;;;;5112175;28;20312;-66
2023/06/04 13:46:38;;;;;;;;;;;;;;;;;;5112347;28;19923;-66
2023/06/04 13:49:05;;;;;;;;;;;;;;;;;;5112470;28;19965;-67
2023/06/04 13:51:30;;;;;;;;;;;;;;;;;;5112330;28;20385;-67
2023/06/04 13:53:56;;;;;;;;;;;;;;;;;;5112182;28;20022;-68
2023/06/04 13:56:21;;;;;;;;;;;;;;;;;;5112194;28;19924;-67
2023/06/04 13:58:47;;;;;;;;;;;;;;;;;;5111877;28;19970;-66
2023/06/04 14:01:12;;;;;;;;;;;;;;;;;;5112246;28;19922;-66
2023/06/04 14:03:37;;;;;;;;;;;;;;;;;;5112141;28;19920;-66
2023/06/04 14:06:03;;;;;;;;;;;;;;;;;;5112105;28;19926;-67
2023/06/04 14:08:28;;;;;;;;;;;;;;;;;;5112071;28;19945;-65
2023/06/04 14:10:54;;;;;;;;;;;;;;;;;;5112143;28;19915;-66
2023/06/04 14:13:20;;;;;;;;;;;;;;;;;;5111887;28;20023;-67
2023/06/04 14:15:45;;;;;;;;;;;;;;;;;;5111853;28;20039;-66
2023/06/04 14:18:10;;;;;;;;;;;;;;;;;;5111919;28;19920;-66
2023/06/04 14:20:36;;;;;;;;;;;;;;;;;;5093587;28;19915;-67
2023/06/04 14:23:01;;;;;;;;;;;;;;;;;;5093735;28;20006;-66
2023/06/04 14:25:27;;;;;;;;;;;;;;;;;;5093753;28;19915;-67
2023/06/04 14:27:52;;;;;;;;;;;;;;;;;;5111935;28;19920;-66
2023/06/04 14:30:18;;;;;;;;;;;;;;;;;;5111741;28;19915;-65
2023/06/04 14:32:43;;;;;;;;;;;;;;;;;;5111880;28;19938;-66
2023/06/04 14:35:09;;;;;;;;;;;;;;;;;;5111806;28;19916;-66
2023/06/04 14:37:34;;;;;;;;;;;;;;;;;;5111618;28;19940;-66
2023/06/04 14:40:00;;;;;;;;;;;;;;;;;;5111561;28;19916;-67
2023/06/04 14:42:25;;;;;;;;;;;;;;;;;;5111145;28;20017;-67
2023/06/04 14:44:50;;;;;;;;;;;;;;;;;;5111671;28;19916;-66
2023/06/04 14:47:16;;;;;;;;;;;;;;;;;;5092863;28;19927;-64
2023/06/04 14:49:41;;;;;;;;;;;;;;;;;;5093119;28;20031;-63
2023/06/04 14:52:06;;;;;;;;;;;;;;;;;;5112614;28;20069;-64
2023/06/04 14:54:32;;;;;;;;;;;;;;;;;;5115211;28;19922;-64
2023/06/04 14:56:57;;;;;;;;;;;;;;;;;;5114976;28;20412;-64
2023/06/04 14:59:22;;;;;;;;;;;;;;;;;;5114657;28;19920;-63
2023/06/04 15:01:48;;;;;;;;;;;;;;;;;;5110916;28;19916;-63
2023/06/04 15:04:13;;;;;;;;;;;;;;;;;;5088553;28;19937;-65
2023/06/04 15:06:39;;;;;;;;;;;;;;;;;;5101289;28;19916;-67
2023/06/04 15:09:04;;;;;;;;;;;;;;;;;;5078253;28;19964;-64
2023/06/04 15:11:30;;;;;;;;;;;;;;;;;;5093645;28;19942;-65
2023/06/04 15:13:55;;;;;;;;;;;;;;;;;;5112593;28;19927;-65
2023/06/04 15:16:21;;;;;;;;;;;;;;;;;;5092929;28;19924;-65
2023/06/04 15:18:46;;;;;;;;;;;;;;;;;;5108598;28;20449;-64
2023/06/04 15:21:11;;;;;;;;;;;;;;;;;;5085814;28;19916;-65
2023/06/04 15:23:37;;;;;;;;;;;;;;;;;;5103659;28;20393;-66
2023/06/04 15:26:02;;;;;;;;;;;;;;;;;;5076079;28;19916;-67
2023/06/04 15:28:27;;;;;;;;;;;;;;;;;;5101582;28;19924;-65
2023/06/04 15:30:53;;;;;;;;;;;;;;;;;;5111196;28;19916;-65
2023/06/04 15:33:18;;;;;;;;;;;;;;;;;;5109204;28;20463;-65
2023/06/04 15:35:43;;;;;;;;;;;;;;;;;;5097462;28;19966;-67
2023/06/04 15:38:09;;;;;;;;;;;;;;;;;;5100791;28;19934;-64
2023/06/04 15:40:34;;;;;;;;;;;;;;;;;;5109322;28;19924;-68
2023/06/04 15:42:59;;;;;;;;;;;;;;;;;;5109850;28;19926;-65
2023/06/04 15:45:25;;;;;;;;;;;;;;;;;;5085228;28;19915;-66
2023/06/04 15:47:50;;;;;;;;;;;;;;;;;;5104823;28;20530;-65
2023/06/04 15:50:15;;;;;;;;;;;;;;;;;;5105543;28;20393;-65
2023/06/04 15:52:41;;;;;;;;;;;;;;;;;;5089902;28;20414;-66
2023/06/04 15:55:07;;;;;;;;;;;;;;;;;;5092703;28;19961;-66
2023/06/04 15:57:32;;;;;;;;;;;;;;;;;;5093381;28;19986;-67
2023/06/04 15:59:57;;;;;;;;;;;;;;;;;;5075278;28;19912;-67
2023/06/04 16:02:22;;;;;;;;;;;;;;;;;;5091046;28;20027;-67
2023/06/04 16:04:48;;;;;;;;;;;;;;;;;;5082788;28;19961;-65
2023/06/04 16:07:13;;;;;;;;;;;;;;;;;;5089575;28;19935;-62
2023/06/04 16:09:38;;;;;;;;;;;;;;;;;;5081466;28;19923;-63
2023/06/04 16:12:05;;;;;;;;;;;;;;;;;;5091588;28;19926;-61
2023/06/04 16:14:30;;;;;;;;;;;;;;;;;;5066804;28;19920;-61
2023/06/04 16:16:55;;;;;;;;;;;;;;;;;;5075684;28;19928;-62
2023/06/04 16:19:21;;;;;;;;;;;;;;;;;;5082859;28;20454;-62
2023/06/04 16:21:46;;;;;;;;;;;;;;;;;;5078725;28;19916;-63
2023/06/04 16:24:12;;;;;;;;;;;;;;;;;;5074138;28;20334;-65
2023/06/04 16:26:37;;;;;;;;;;;;;;;;;;5092707;28;19916;-62
2023/06/04 16:29:02;;;;;;;;;;;;;;;;;;5093079;28;19950;-63
2023/06/04 16:31:28;;;;;;;;;;;;;;;;;;5091793;28;19982;-63
2023/06/04 16:33:53;;;;;;;;;;;;;;;;;;5087894;28;19924;-63
2023/06/04 16:36:19;;;;;;;;;;;;;;;;;;5074299;28;19977;-62